createdAt,value
2022-11-25T00:01:12.273Z,1.48
2022-11-25T00:03:39.837Z,1.30
2022-11-25T00:06:39.567Z,1.27
2022-11-25T00:09:13.022Z,1.55
2022-11-25T00:14:08.274Z,1.40
2022-11-25T00:16:34.883Z,1.67
2022-11-25T00:19:01.456Z,1.30
2022-11-25T00:21:31.410Z,1.42
2022-11-25T00:24:00.313Z,1.15
2022-11-25T00:26:28.631Z,1.20
2022-11-25T00:28:57.609Z,1.33
2022-11-25T00:31:30.162Z,1.35
2022-11-25T00:33:56.912Z,1.20
2022-11-25T00:36:28.042Z,1.23
2022-11-25T00:38:59.526Z,1.50
2022-11-25T00:41:45.648Z,1.63
2022-11-25T00:44:33.275Z,1.52
2022-11-25T00:47:00.526Z,1.38
2022-11-25T00:49:27.611Z,1.55
2022-11-25T00:51:54.211Z,1.60
2022-11-25T00:54:20.755Z,1.50
2022-11-25T00:56:47.291Z,1.20
2022-11-25T00:59:13.819Z,1.40
2022-11-25T01:01:40.460Z,1.35
2022-11-25T01:04:07.651Z,1.80
2022-11-25T01:06:34.996Z,1.50
2022-11-25T01:09:01.562Z,1.60
2022-11-25T01:11:28.137Z,1.58
2022-11-25T01:14:00.815Z,1.02
2022-11-25T01:16:29.073Z,1.40
2022-11-25T01:18:55.695Z,1.30
2022-11-25T01:21:24.330Z,1.55
2022-11-25T01:23:51.476Z,1.65
2022-11-25T01:26:20.099Z,1.70
2022-11-25T01:28:46.675Z,1.42
2022-11-25T01:31:18.771Z,1.67
2022-11-25T01:33:46.055Z,1.63
2022-11-25T01:36:16.901Z,1.30
2022-11-25T01:38:44.283Z,1.40
2022-11-25T01:41:13.913Z,1.40
2022-11-25T01:43:41.059Z,1.50
2022-11-25T01:46:12.783Z,1.40
2022-11-25T01:48:48.008Z,1.45
2022-11-25T01:51:24.517Z,1.52
2022-11-25T01:53:51.620Z,1.80
2022-11-25T01:56:18.745Z,1.23
2022-11-25T01:58:46.650Z,1.30
2022-11-25T02:01:13.360Z,1.20
2022-11-25T02:03:45.297Z,1.35
2022-11-25T02:06:26.304Z,1.50
2022-11-25T02:08:57.499Z,1.30
2022-11-25T02:11:25.998Z,1.35
2022-11-25T02:13:53.642Z,1.70
2022-11-25T02:16:20.251Z,1.40
2022-11-25T02:18:46.862Z,1.20
2022-11-25T02:21:15.687Z,1.50
2022-11-25T02:23:54.148Z,1.73
2022-11-25T02:26:21.328Z,1.63
2022-11-25T02:28:48.790Z,1.25
2022-11-25T02:31:20.674Z,1.40
2022-11-25T02:33:47.296Z,1.38
2022-11-25T02:36:16.439Z,1.40
2022-11-25T02:38:52.196Z,1.23
2022-11-25T02:41:31.818Z,1.17
2022-11-25T02:43:58.839Z,1.40
2022-11-25T02:46:27.332Z,1.40
2022-11-25T02:49:11.019Z,1.55
2022-11-25T02:51:39.489Z,1.40
2022-11-25T02:54:06.739Z,1.30
2022-11-25T02:56:35.640Z,1.40
2022-11-25T02:59:03.700Z,1.60
2022-11-25T03:01:31.585Z,1.33
2022-11-25T03:03:58.536Z,1.20
2022-11-25T03:06:25.073Z,1.33
2022-11-25T03:08:51.771Z,1.50
2022-11-25T03:11:18.307Z,1.40
2022-11-25T03:13:44.920Z,1.38
2022-11-25T03:16:11.784Z,1.35
2022-11-25T03:18:38.367Z,1.50
2022-11-25T03:21:05.064Z,1.30
2022-11-25T03:23:31.608Z,1.45
2022-11-25T03:25:58.130Z,1.25
2022-11-25T03:28:24.688Z,1.33
2022-11-25T03:30:51.227Z,1.55
2022-11-25T03:33:17.774Z,1.55
2022-11-25T03:35:44.303Z,1.40
2022-11-25T03:38:10.842Z,1.38
2022-11-25T03:40:37.505Z,1.50
2022-11-25T03:43:04.055Z,1.30
2022-11-25T03:45:30.620Z,1.23
2022-11-25T03:47:57.223Z,1.35
2022-11-25T03:50:23.910Z,1.58
2022-11-25T03:52:50.455Z,1.40
2022-11-25T03:55:17.039Z,1.30
2022-11-25T03:57:43.629Z,1.40
2022-11-25T04:00:11.147Z,1.27
2022-11-25T04:02:37.723Z,1.30
2022-11-25T04:05:05.559Z,1.50
2022-11-25T04:07:32.266Z,1.42
2022-11-25T04:09:58.836Z,1.25
2022-11-25T04:12:43.971Z,1.30
2022-11-25T04:15:10.651Z,1.45
2022-11-25T04:17:37.201Z,1.25
2022-11-25T04:20:04.317Z,1.35
2022-11-25T04:22:30.893Z,1.35
2022-11-25T04:24:57.445Z,1.13
2022-11-25T04:27:24.320Z,1.70
2022-11-25T04:29:50.915Z,1.30
2022-11-25T04:32:17.510Z,1.65
2022-11-25T04:34:44.132Z,1.15
2022-11-25T04:37:10.716Z,1.52
2022-11-25T04:39:37.264Z,1.38
2022-11-25T04:42:22.674Z,1.30
2022-11-25T04:45:14.100Z,1.40
2022-11-25T04:47:36.080Z,1.23
2022-11-25T04:50:03.502Z,1.30
2022-11-25T04:52:30.118Z,1.63
2022-11-25T04:54:56.657Z,1.50
2022-11-25T04:57:23.366Z,1.40
2022-11-25T04:59:49.961Z,1.50
2022-11-25T05:02:22.540Z,1.20
2022-11-25T05:04:50.105Z,1.20
2022-11-25T05:07:18.759Z,1.33
2022-11-25T05:09:45.611Z,1.33
2022-11-25T05:12:15.111Z,1.13
2022-11-25T05:14:41.746Z,1.20
2022-11-25T05:17:13.625Z,1.15
2022-11-25T05:19:40.174Z,1.10
2022-11-25T05:22:10.657Z,1.20
2022-11-25T05:24:37.577Z,1.50
2022-11-25T05:27:04.509Z,1.20
2022-11-25T05:29:31.091Z,1.65
2022-11-25T05:31:57.646Z,1.40
2022-11-25T05:34:24.207Z,1.10
2022-11-25T05:36:51.953Z,1.55
2022-11-25T05:39:18.986Z,1.17
2022-11-25T05:41:45.547Z,1.27
2022-11-25T05:44:12.136Z,1.77
2022-11-25T05:46:38.684Z,1.60
2022-11-25T05:49:05.260Z,1.20
2022-11-25T05:51:31.787Z,1.30
2022-11-25T05:53:58.376Z,1.27
2022-11-25T05:56:25.039Z,1.63
2022-11-25T05:58:51.613Z,1.48
2022-11-25T06:01:18.223Z,1.30
2022-11-25T06:03:44.843Z,1.58
2022-11-25T06:06:11.693Z,1.50
2022-11-25T06:08:39.202Z,1.52
2022-11-25T06:11:13.887Z,1.45
2022-11-25T06:13:41.806Z,1.55
2022-11-25T06:16:28.657Z,1.67
2022-11-25T06:18:55.247Z,1.48
2022-11-25T06:21:21.804Z,1.48
2022-11-25T06:23:48.372Z,1.30
2022-11-25T06:26:20.651Z,1.48
2022-11-25T06:28:48.114Z,1.73
2022-11-25T06:31:17.698Z,1.23
2022-11-25T06:33:47.468Z,1.40
2022-11-25T06:36:17.391Z,1.50
2022-11-25T06:38:51.899Z,1.67
2022-11-25T06:41:19.239Z,1.35
2022-11-25T06:43:45.819Z,2.00
2022-11-25T06:46:17.401Z,1.20
2022-11-25T06:48:47.871Z,1.15
2022-11-25T06:51:16.219Z,1.35
2022-11-25T06:53:42.939Z,1.40
2022-11-25T06:56:17.583Z,1.70
2022-11-25T06:58:45.952Z,1.35
2022-11-25T07:01:26.306Z,1.30
2022-11-25T07:03:55.216Z,1.20
2022-11-25T07:06:22.002Z,1.30
2022-11-25T07:08:49.155Z,1.50
2022-11-25T07:11:21.311Z,1.48
2022-11-25T07:13:48.572Z,1.30
2022-11-25T07:16:15.379Z,1.58
2022-11-25T07:18:42.260Z,1.38
2022-11-25T07:21:12.256Z,1.58
2022-11-25T07:23:39.332Z,1.20
2022-11-25T07:26:18.185Z,1.48
2022-11-25T07:28:45.279Z,1.13
2022-11-25T07:31:31.750Z,1.27
2022-11-25T07:34:08.219Z,1.50
2022-11-25T07:36:35.701Z,1.48
2022-11-25T07:39:07.470Z,1.50
2022-11-25T07:41:34.145Z,1.00
2022-11-25T07:44:02.620Z,1.33
2022-11-25T07:46:37.534Z,1.20
2022-11-25T07:49:06.450Z,1.35
2022-11-25T07:51:35.770Z,1.42
2022-11-25T07:54:03.846Z,1.58
2022-11-25T07:56:30.546Z,1.70
2022-11-25T07:58:57.701Z,1.38
2022-11-25T08:01:24.869Z,1.55
2022-11-25T08:03:52.124Z,1.20
2022-11-25T08:06:21.384Z,1.27
2022-11-25T08:08:48.410Z,1.30
2022-11-25T08:11:17.270Z,1.30
2022-11-25T08:13:44.290Z,1.10
2022-11-25T08:16:15.647Z,1.48
2022-11-25T08:18:42.614Z,1.50
2022-11-25T08:21:10.692Z,1.10
2022-11-25T08:23:38.748Z,1.60
2022-11-25T08:26:11.220Z,1.10
2022-11-25T08:28:38.852Z,0.90
2022-11-25T08:31:07.343Z,1.00
2022-11-25T08:33:34.334Z,1.10
2022-11-25T08:36:01.020Z,0.90
2022-11-25T08:38:28.212Z,1.17
2022-11-25T08:40:55.616Z,1.33
2022-11-25T08:43:27.910Z,0.98
2022-11-25T08:45:55.851Z,1.40
2022-11-25T08:48:22.477Z,1.33
2022-11-25T08:50:51.903Z,1.50
2022-11-25T08:53:18.643Z,1.58
2022-11-25T08:55:45.216Z,1.40
2022-11-25T08:58:13.288Z,2.08
2022-11-25T09:00:44.111Z,3.65
2022-11-25T09:03:11.530Z,4.85
2022-11-25T09:05:42.453Z,6.15
2022-11-25T09:08:09.832Z,4.32
2022-11-25T09:10:37.500Z,4.57
2022-11-25T09:13:04.484Z,4.05
2022-11-25T09:15:31.732Z,4.07
2022-11-25T09:18:03.012Z,4.85
2022-11-25T09:20:30.243Z,4.07
2022-11-25T09:22:59.963Z,3.75
2022-11-25T09:25:27.494Z,3.80
2022-11-25T09:27:54.932Z,3.22
2022-11-25T09:30:21.510Z,3.78
2022-11-25T09:32:52.931Z,4.05
2022-11-25T09:35:19.931Z,3.40
2022-11-25T09:37:46.856Z,3.67
2022-11-25T09:40:34.330Z,3.78
2022-11-25T09:43:41.358Z,3.72
2022-11-25T09:46:47.627Z,3.65
2022-11-25T09:49:20.028Z,2.80
2022-11-25T09:52:19.078Z,3.15
2022-11-25T09:54:53.619Z,3.30
2022-11-25T09:57:48.298Z,3.30
2022-11-25T10:00:20.359Z,2.80
2022-11-25T10:03:13.721Z,2.55
2022-11-25T10:05:58.548Z,2.92
2022-11-25T10:08:29.093Z,2.80
2022-11-25T10:11:18.729Z,2.88
2022-11-25T10:13:47.889Z,3.00
2022-11-25T10:16:36.539Z,2.50
2022-11-25T10:19:17.573Z,2.58
2022-11-25T10:21:46.417Z,2.60
2022-11-25T10:24:15.389Z,2.72
2022-11-25T10:26:45.729Z,2.50
2022-11-25T10:29:15.155Z,2.50
2022-11-25T10:31:43.702Z,2.53
2022-11-25T10:34:20.119Z,2.88
2022-11-25T10:36:48.544Z,2.88
2022-11-25T10:39:19.884Z,2.20
2022-11-25T10:41:52.901Z,2.28
2022-11-25T10:44:29.311Z,2.38
2022-11-25T10:47:13.320Z,2.22
2022-11-25T10:50:13.487Z,2.10
2022-11-25T10:52:49.780Z,2.50
2022-11-25T10:55:24.270Z,2.67
2022-11-25T10:57:50.981Z,2.20
2022-11-25T11:00:30.239Z,2.30
2022-11-25T11:02:57.662Z,2.40
2022-11-25T11:05:29.795Z,2.30
2022-11-25T11:08:19.652Z,2.08
2022-11-25T11:10:51.643Z,2.13
2022-11-25T11:13:24.711Z,2.53
2022-11-25T11:15:52.566Z,1.90
2022-11-25T11:18:21.915Z,2.08
2022-11-25T11:20:56.783Z,2.28
2022-11-25T11:23:23.899Z,2.30
2022-11-25T11:26:06.019Z,2.25
2022-11-25T11:28:36.940Z,2.15
2022-11-25T11:31:16.141Z,2.20
2022-11-25T11:33:48.741Z,2.10
2022-11-25T11:36:28.510Z,2.13
2022-11-25T11:39:13.497Z,2.25
2022-11-25T11:41:44.466Z,2.13
2022-11-25T11:44:23.031Z,2.10
2022-11-25T11:47:14.348Z,2.10
2022-11-25T11:50:02.565Z,2.10
2022-11-25T11:52:53.100Z,1.92
2022-11-25T11:55:41.556Z,2.05
2022-11-25T11:58:36.913Z,2.15
2022-11-25T12:01:06.361Z,1.80
2022-11-25T12:03:38.694Z,2.00
2022-11-25T12:06:06.299Z,1.60
2022-11-25T12:08:44.613Z,1.63
2022-11-25T12:11:13.771Z,2.00
2022-11-25T12:14:00.718Z,1.73
2022-11-25T12:16:32.371Z,2.00
2022-11-25T12:19:07.998Z,1.38
2022-11-25T12:21:48.472Z,1.60
2022-11-25T12:24:42.755Z,1.98
2022-11-25T12:27:27.906Z,1.52
2022-11-25T12:30:03.930Z,1.85
2022-11-25T12:32:41.997Z,1.60
2022-11-25T12:35:11.580Z,1.80
2022-11-25T12:37:49.196Z,1.60
2022-11-25T12:40:19.071Z,1.70
2022-11-25T12:42:46.644Z,1.40
2022-11-25T12:45:20.581Z,1.55
2022-11-25T12:47:47.172Z,1.40
2022-11-25T12:50:38.309Z,1.52
2022-11-25T12:53:12.548Z,1.58
2022-11-25T12:55:40.927Z,1.65
2022-11-25T12:58:22.825Z,1.83
2022-11-25T13:01:24.609Z,1.42
2022-11-25T13:04:18.745Z,1.55
2022-11-25T13:09:46.598Z,1.60
2022-11-25T13:12:22.036Z,1.30
2022-11-25T13:15:28.416Z,1.73
2022-11-25T13:17:59.461Z,1.67
2022-11-25T13:20:29.048Z,1.52
2022-11-25T13:23:10.864Z,1.55
2022-11-25T13:25:39.785Z,1.70
2022-11-25T13:28:30.528Z,1.30
2022-11-25T13:31:18.456Z,1.70
2022-11-25T13:33:45.017Z,1.50
2022-11-25T13:36:22.616Z,1.50
2022-11-25T13:38:49.148Z,1.67
2022-11-25T13:41:15.726Z,1.58
2022-11-25T13:44:21.416Z,1.60
2022-11-25T13:46:51.647Z,1.50
2022-11-25T13:49:28.662Z,1.23
2022-11-25T13:51:58.263Z,1.50
2022-11-25T13:54:35.777Z,1.88
2022-11-25T13:57:11.250Z,1.58
2022-11-25T13:59:43.395Z,1.50
2022-11-25T14:02:28.316Z,1.55
2022-11-25T14:05:16.889Z,1.30
2022-11-25T14:08:16.992Z,1.67
2022-11-25T14:11:21.447Z,1.20
2022-11-25T14:14:15.973Z,1.40
2022-11-25T14:16:54.396Z,1.90
2022-11-25T14:19:54.810Z,1.15
2022-11-25T14:22:45.850Z,1.80
2022-11-25T14:25:30.241Z,1.25
2022-11-25T14:28:10.733Z,1.52
2022-11-25T14:30:50.343Z,1.30
2022-11-25T14:33:24.793Z,1.35
2022-11-25T14:36:00.656Z,1.15
2022-11-25T14:38:37.743Z,1.42
2022-11-25T14:41:08.571Z,1.40
2022-11-25T14:43:40.099Z,1.35
2022-11-25T14:46:09.997Z,1.50
2022-11-25T14:48:36.928Z,1.17
2022-11-25T14:51:08.184Z,1.42
2022-11-25T14:53:46.022Z,1.60
2022-11-25T14:56:16.324Z,1.25
2022-11-25T14:58:48.169Z,1.27
2022-11-25T15:01:45.427Z,1.40
2022-11-25T15:04:22.262Z,1.17
2022-11-25T15:06:50.651Z,0.98
2022-11-25T15:09:21.891Z,1.48
2022-11-25T15:11:51.893Z,1.38
2022-11-25T15:14:24.891Z,1.55
2022-11-25T15:16:51.916Z,1.42
2022-11-25T15:19:21.307Z,1.75
2022-11-25T15:22:21.889Z,1.23
2022-11-25T15:24:50.181Z,1.50
2022-11-25T15:27:27.715Z,1.48
2022-11-25T15:29:55.827Z,1.42
2022-11-25T15:32:31.436Z,1.38
2022-11-25T15:35:00.572Z,1.50
2022-11-25T15:37:28.218Z,1.25
2022-11-25T15:40:31.743Z,1.45
2022-11-25T15:42:59.809Z,1.17
2022-11-25T15:45:33.651Z,1.27
2022-11-25T15:48:00.281Z,1.52
2022-11-25T15:50:28.586Z,1.20
2022-11-25T15:52:57.286Z,1.50
2022-11-25T15:55:41.829Z,1.52
2022-11-25T15:58:13.646Z,1.30
2022-11-25T16:00:41.829Z,1.33
2022-11-25T16:03:21.581Z,1.42
2022-11-25T16:05:55.428Z,1.50
2022-11-25T16:08:29.994Z,1.50
2022-11-25T16:11:12.880Z,1.60
2022-11-25T16:13:39.889Z,1.20
2022-11-25T16:16:17.661Z,1.10
2022-11-25T16:19:08.017Z,1.48
2022-11-25T16:21:37.984Z,1.45
2022-11-25T16:24:23.340Z,1.35
2022-11-25T16:27:00.810Z,1.27
2022-11-25T16:29:38.436Z,1.15
2022-11-25T16:32:26.348Z,1.30
2022-11-25T16:34:56.618Z,1.58
2022-11-25T16:37:24.096Z,1.27
2022-11-25T16:39:50.657Z,1.38
2022-11-25T16:42:19.987Z,1.17
2022-11-25T16:44:51.293Z,1.30
2022-11-25T16:47:19.357Z,1.30
2022-11-25T16:49:46.629Z,1.38
2022-11-25T16:52:13.719Z,1.38
2022-11-25T16:54:41.072Z,1.20
2022-11-25T16:57:10.137Z,1.20
2022-11-25T16:59:40.084Z,1.45
2022-11-25T17:02:16.895Z,1.10
2022-11-25T17:04:43.773Z,1.30
2022-11-25T17:10:01.513Z,1.27
2022-11-25T17:12:30.639Z,1.02
2022-11-25T17:14:59.808Z,1.45
2022-11-25T17:17:27.056Z,1.35
2022-11-25T17:19:54.055Z,1.00
2022-11-25T17:22:23.259Z,1.30
2022-11-25T17:24:49.848Z,1.23
2022-11-25T17:27:34.452Z,1.40
2022-11-25T17:30:04.049Z,1.50
2022-11-25T17:32:31.193Z,1.25
2022-11-25T17:34:57.786Z,1.50
2022-11-25T17:37:25.566Z,1.25
2022-11-25T17:39:53.515Z,1.27
2022-11-25T17:42:26.475Z,1.48
2022-11-25T17:44:54.393Z,1.60
2022-11-25T17:47:21.179Z,1.20
2022-11-25T17:49:49.457Z,1.33
2022-11-25T17:52:16.070Z,1.63
2022-11-25T17:54:42.661Z,1.40
2022-11-25T17:57:17.596Z,1.40
2022-11-25T17:59:44.184Z,1.40
2022-11-25T18:02:18.813Z,1.60
2022-11-25T18:04:45.640Z,1.50
2022-11-25T18:07:12.251Z,1.30
2022-11-25T18:09:38.838Z,1.45
2022-11-25T18:12:09.918Z,1.45
2022-11-25T18:14:37.246Z,1.27
2022-11-25T18:17:06.400Z,1.52
2022-11-25T18:19:33.980Z,1.48
2022-11-25T18:22:06.438Z,1.30
2022-11-25T18:24:32.987Z,1.20
2022-11-25T18:26:59.528Z,1.30
2022-11-25T18:29:26.907Z,1.65
2022-11-25T18:31:55.859Z,1.60
2022-11-25T18:34:23.933Z,1.52
2022-11-25T18:36:51.395Z,1.55
2022-11-25T18:39:18.976Z,1.35
2022-11-25T18:41:46.746Z,1.52
2022-11-25T18:44:25.916Z,1.52
2022-11-25T18:46:53.402Z,1.52
2022-11-25T18:49:19.931Z,1.80
2022-11-25T18:51:46.571Z,1.70
2022-11-25T18:54:13.199Z,1.20
2022-11-25T18:56:41.394Z,1.35
2022-11-25T18:59:13.196Z,1.83
2022-11-25T19:01:39.853Z,1.55
2022-11-25T19:04:06.451Z,1.80
2022-11-25T19:06:33.060Z,1.65
2022-11-25T19:08:59.747Z,1.63
2022-11-25T19:11:30.044Z,1.40
2022-11-25T19:14:05.267Z,1.63
2022-11-25T19:16:31.898Z,1.45
2022-11-25T19:18:58.690Z,1.52
2022-11-25T19:21:25.311Z,1.70
2022-11-25T19:23:51.874Z,1.70
2022-11-25T19:26:24.684Z,2.20
2022-11-25T19:29:01.773Z,1.70
2022-11-25T19:31:31.125Z,1.92
2022-11-25T19:33:57.866Z,2.15
2022-11-25T19:36:26.499Z,1.27
2022-11-25T19:38:53.505Z,1.52
2022-11-25T19:41:20.315Z,1.67
2022-11-25T19:43:46.933Z,1.70
2022-11-25T19:46:29.995Z,1.92
2022-11-25T19:49:01.889Z,1.75
2022-11-25T19:51:32.447Z,1.77
2022-11-25T19:53:59.026Z,1.70
2022-11-25T19:56:27.196Z,1.30
2022-11-25T19:58:54.525Z,1.55
2022-11-25T20:01:24.555Z,1.98
2022-11-25T20:03:51.424Z,1.42
2022-11-25T20:06:19.420Z,1.55
2022-11-25T20:08:46.755Z,1.42
2022-11-25T20:11:17.906Z,1.33
2022-11-25T20:13:45.743Z,1.40
2022-11-25T20:16:17.515Z,1.35
2022-11-25T20:18:44.836Z,1.48
2022-11-25T20:21:33.221Z,1.30
2022-11-25T20:24:00.694Z,1.70
2022-11-25T20:26:31.101Z,1.30
2022-11-25T20:28:57.724Z,1.67
2022-11-25T20:31:28.714Z,1.30
2022-11-25T20:33:56.840Z,1.33
2022-11-25T20:36:27.124Z,1.50
2022-11-25T20:38:54.735Z,1.63
2022-11-25T20:41:27.511Z,1.50
2022-11-25T20:43:54.969Z,1.73
2022-11-25T20:46:23.950Z,1.38
2022-11-25T20:48:55.764Z,1.40
2022-11-25T20:51:23.376Z,1.67
2022-11-25T20:53:58.127Z,1.40
2022-11-25T20:56:26.915Z,1.58
2022-11-25T20:58:53.684Z,1.67
2022-11-25T21:01:20.400Z,1.30
2022-11-25T21:03:48.242Z,1.58
2022-11-25T21:06:30.239Z,1.40
2022-11-25T21:08:59.087Z,1.60
2022-11-25T21:11:27.678Z,1.25
2022-11-25T21:13:54.574Z,1.50
2022-11-25T21:16:21.239Z,1.75
2022-11-25T21:18:47.875Z,1.40
2022-11-25T21:21:17.427Z,1.30
2022-11-25T21:23:45.988Z,1.40
2022-11-25T21:26:17.934Z,1.40
2022-11-25T21:28:46.184Z,1.50
2022-11-25T21:31:18.740Z,1.23
2022-11-25T21:33:46.791Z,1.40
2022-11-25T21:36:22.563Z,1.10
2022-11-25T21:38:50.792Z,1.60
2022-11-25T21:41:18.207Z,1.20
2022-11-25T21:43:46.820Z,1.83
2022-11-25T21:46:26.495Z,1.70
2022-11-25T21:48:53.436Z,1.30
2022-11-25T21:51:24.779Z,1.25
2022-11-25T21:53:54.612Z,1.55
2022-11-25T21:56:29.157Z,1.73
2022-11-25T21:58:57.024Z,1.35
2022-11-25T22:01:24.050Z,1.52
2022-11-25T22:03:50.617Z,1.65
2022-11-25T22:06:19.978Z,1.70
2022-11-25T22:08:46.608Z,1.63
2022-11-25T22:11:15.880Z,1.58
2022-11-25T22:13:43.249Z,1.70
2022-11-25T22:16:18.135Z,1.70
2022-11-25T22:18:45.071Z,1.33
2022-11-25T22:21:13.285Z,1.95
2022-11-25T22:23:40.760Z,2.05
2022-11-25T22:26:07.717Z,1.65
2022-11-25T22:28:35.110Z,1.50
2022-11-25T22:31:03.654Z,1.38
2022-11-25T22:33:32.949Z,1.55
2022-11-25T22:35:59.625Z,1.75
2022-11-25T22:38:27.262Z,1.52
2022-11-25T22:40:59.867Z,1.83
2022-11-25T22:43:29.808Z,1.83
2022-11-25T22:45:56.938Z,1.70
2022-11-25T22:48:32.744Z,1.83
2022-11-25T22:50:59.662Z,1.85
2022-11-25T22:53:26.255Z,2.00
2022-11-25T22:56:00.042Z,1.65
2022-11-25T22:58:27.651Z,1.40
2022-11-25T23:00:55.171Z,1.60
2022-11-25T23:03:27.084Z,1.45
2022-11-25T23:05:54.343Z,1.40
2022-11-25T23:08:23.145Z,1.90
2022-11-25T23:10:50.241Z,2.03
2022-11-25T23:13:20.567Z,1.75
2022-11-25T23:15:49.509Z,1.85
2022-11-25T23:18:20.919Z,1.70
2022-11-25T23:20:48.887Z,1.75
2022-11-25T23:23:21.022Z,1.45
2022-11-25T23:25:48.282Z,1.98
2022-11-25T23:28:16.291Z,1.42
2022-11-25T23:31:04.162Z,1.60
2022-11-25T23:33:37.970Z,1.73
2022-11-25T23:36:09.052Z,1.30
2022-11-25T23:38:40.396Z,2.00
2022-11-25T23:41:13.607Z,1.77
2022-11-25T23:43:40.176Z,1.60
2022-11-25T23:46:09.328Z,1.98
2022-11-25T23:48:35.929Z,1.90
2022-11-25T23:51:02.460Z,1.70
2022-11-25T23:53:31.981Z,1.67
2022-11-25T23:55:58.621Z,1.75
2022-11-25T23:58:25.354Z,1.60
